createdAt,value
2022-11-22T00:01:12.314Z,100039.00
2022-11-22T00:03:40.307Z,100043.41
2022-11-22T00:06:08.241Z,100034.44
2022-11-22T00:08:36.202Z,100039.03
2022-11-22T00:11:04.132Z,100045.78
2022-11-22T00:13:32.191Z,100048.31
2022-11-22T00:16:01.186Z,100050.13
2022-11-22T00:18:31.171Z,100048.66
2022-11-22T00:21:05.317Z,100059.59
2022-11-22T00:23:33.270Z,100056.53
2022-11-22T00:26:01.229Z,100055.28
2022-11-22T00:28:29.190Z,100059.28
2022-11-22T00:30:57.134Z,100056.88
2022-11-22T00:33:25.168Z,100052.97
2022-11-22T00:35:54.503Z,100055.31
2022-11-22T00:38:22.514Z,100056.53
2022-11-22T00:40:50.697Z,100052.28
2022-11-22T00:43:18.970Z,100058.06
2022-11-22T00:45:46.951Z,100062.47
2022-11-22T00:48:14.932Z,100075.41
2022-11-22T00:50:42.878Z,100075.59
2022-11-22T00:53:12.204Z,100073.69
2022-11-22T00:55:40.158Z,100075.94
2022-11-22T00:58:08.112Z,100069.44
2022-11-22T01:00:36.075Z,100072.81
2022-11-22T01:03:04.261Z,100058.00
2022-11-22T01:05:32.227Z,100064.06
2022-11-22T01:08:00.372Z,100071.81
2022-11-22T01:10:29.713Z,100067.75
2022-11-22T01:12:58.747Z,100055.97
2022-11-22T01:15:26.724Z,100059.41
2022-11-22T01:17:54.696Z,100063.66
2022-11-22T01:20:23.033Z,100067.91
2022-11-22T01:22:51.238Z,100065.41
2022-11-22T01:25:19.298Z,100069.72
2022-11-22T01:27:51.041Z,100062.59
2022-11-22T01:30:19.600Z,100059.19
2022-11-22T01:32:47.627Z,100062.34
2022-11-22T01:35:15.693Z,100066.38
2022-11-22T01:37:43.668Z,100065.31
2022-11-22T01:40:12.573Z,100064.72
2022-11-22T01:42:45.421Z,100078.03
2022-11-22T01:45:45.600Z,100064.78
2022-11-22T01:48:39.544Z,100064.78
2022-11-22T01:51:22.147Z,100060.81
2022-11-22T01:53:50.442Z,100058.06
2022-11-22T01:56:22.172Z,100050.53
2022-11-22T01:58:56.625Z,100056.41
2022-11-22T02:01:26.115Z,100069.16
2022-11-22T02:03:57.617Z,100071.91
2022-11-22T02:06:29.841Z,100065.25
2022-11-22T02:09:04.698Z,100077.81
2022-11-22T02:11:34.400Z,100074.75
2022-11-22T02:14:02.809Z,100089.63
2022-11-22T02:16:32.941Z,100076.78
2022-11-22T02:19:00.884Z,100067.91
2022-11-22T02:21:30.340Z,100079.56
2022-11-22T02:24:07.327Z,100087.22
2022-11-22T02:26:37.422Z,100095.88
2022-11-22T02:29:08.928Z,100092.81
2022-11-22T02:31:41.101Z,100094.50
2022-11-22T02:34:09.356Z,100092.88
2022-11-22T02:36:42.661Z,100088.31
2022-11-22T02:39:12.604Z,100081.56
2022-11-22T02:41:42.042Z,100082.91
2022-11-22T02:44:11.833Z,100082.00
2022-11-22T02:46:48.696Z,100077.97
2022-11-22T02:49:19.212Z,100084.63
2022-11-22T02:51:47.563Z,100088.28
2022-11-22T02:54:15.712Z,100085.97
2022-11-22T02:56:45.113Z,100089.75
2022-11-22T02:59:13.090Z,100098.19
2022-11-22T03:01:41.429Z,100095.69
2022-11-22T03:04:09.408Z,100096.09
2022-11-22T03:06:37.353Z,100094.41
2022-11-22T03:09:05.422Z,100095.47
2022-11-22T03:11:33.348Z,100093.56
2022-11-22T03:14:02.672Z,100100.72
2022-11-22T03:16:31.826Z,100104.97
2022-11-22T03:18:59.797Z,100105.38
2022-11-22T03:21:27.805Z,100105.47
2022-11-22T03:23:56.131Z,100100.56
2022-11-22T03:26:24.075Z,100108.31
2022-11-22T03:28:52.150Z,100105.47
2022-11-22T03:31:21.537Z,100105.28
2022-11-22T03:33:49.486Z,100113.63
2022-11-22T03:36:17.486Z,100109.41
2022-11-22T03:38:45.435Z,100109.41
2022-11-22T03:41:13.443Z,100116.38
2022-11-22T03:43:41.388Z,100113.28
2022-11-22T03:46:15.357Z,100118.97
2022-11-22T03:48:44.702Z,100110.41
2022-11-22T03:51:13.045Z,100103.75
2022-11-22T03:53:41.096Z,100104.81
2022-11-22T03:56:09.075Z,100102.00
2022-11-22T03:58:37.244Z,100111.66
2022-11-22T04:01:05.340Z,100108.06
2022-11-22T04:03:33.389Z,100112.91
2022-11-22T04:06:02.765Z,100110.78
2022-11-22T04:08:30.735Z,100103.44
2022-11-22T04:10:58.700Z,100111.41
2022-11-22T04:13:47.397Z,100116.94
2022-11-22T04:16:14.489Z,100108.69
2022-11-22T04:18:42.447Z,100110.19
2022-11-22T04:21:25.621Z,100117.84
2022-11-22T04:24:07.383Z,100117.47
2022-11-22T04:26:35.330Z,100116.09
2022-11-22T04:29:09.723Z,100118.59
2022-11-22T04:31:55.648Z,100121.22
2022-11-22T04:34:24.415Z,100136.09
2022-11-22T04:36:53.794Z,100131.50
2022-11-22T04:39:21.834Z,100135.97
2022-11-22T04:42:10.395Z,100147.19
2022-11-22T04:44:43.202Z,100149.06
2022-11-22T04:47:12.292Z,100147.78
2022-11-22T04:49:40.681Z,100146.94
2022-11-22T04:52:27.983Z,100153.59
2022-11-22T04:54:55.922Z,100155.38
2022-11-22T04:57:23.855Z,100146.81
2022-11-22T04:59:51.781Z,100157.00
2022-11-22T05:02:19.708Z,100172.41
2022-11-22T05:04:50.670Z,100172.22
2022-11-22T05:07:20.355Z,100178.59
2022-11-22T05:09:48.351Z,100190.06
2022-11-22T05:12:16.306Z,100194.94
2022-11-22T05:14:44.244Z,100194.38
2022-11-22T05:17:13.537Z,100201.06
2022-11-22T05:19:47.779Z,100208.84
2022-11-22T05:22:17.462Z,100210.22
2022-11-22T05:24:45.772Z,100198.69
2022-11-22T05:27:13.713Z,100216.47
2022-11-22T05:29:41.695Z,100217.94
2022-11-22T05:32:09.642Z,100221.69
2022-11-22T05:34:37.580Z,100226.31
2022-11-22T05:37:05.506Z,100229.19
2022-11-22T05:39:33.445Z,100233.94
2022-11-22T05:42:05.950Z,100234.31
2022-11-22T05:44:34.172Z,100228.34
2022-11-22T05:47:02.113Z,100240.00
2022-11-22T05:49:30.400Z,100240.75
2022-11-22T05:51:58.558Z,100239.19
2022-11-22T05:54:26.536Z,100241.16
2022-11-22T05:56:54.554Z,100240.75
2022-11-22T05:59:24.036Z,100243.09
2022-11-22T06:01:52.087Z,100233.81
2022-11-22T06:04:20.244Z,100256.94
2022-11-22T06:06:48.405Z,100264.00
2022-11-22T06:09:16.420Z,100254.41
2022-11-22T06:11:44.363Z,100261.06
2022-11-22T06:14:12.297Z,100259.38
2022-11-22T06:16:41.626Z,100261.50
2022-11-22T06:19:09.768Z,100265.97
2022-11-22T06:21:37.729Z,100267.19
2022-11-22T06:24:06.285Z,100265.69
2022-11-22T06:26:39.012Z,100274.22
2022-11-22T06:29:07.638Z,100265.66
2022-11-22T06:31:35.623Z,100266.91
2022-11-22T06:34:05.260Z,100258.03
2022-11-22T06:36:35.135Z,100240.78
2022-11-22T06:39:03.898Z,100266.34
2022-11-22T06:41:34.954Z,100269.66
2022-11-22T06:44:06.702Z,100270.66
2022-11-22T06:46:35.156Z,100269.03
2022-11-22T06:49:05.040Z,100286.53
2022-11-22T06:51:33.412Z,100290.19
2022-11-22T06:54:01.376Z,100297.56
2022-11-22T06:56:30.998Z,100299.81
2022-11-22T06:58:59.496Z,100304.97
2022-11-22T07:01:29.319Z,100307.09
2022-11-22T07:03:59.307Z,100314.25
2022-11-22T07:06:30.596Z,100310.34
2022-11-22T07:09:00.187Z,100298.72
2022-11-22T07:11:29.645Z,100305.63
2022-11-22T07:14:05.331Z,100293.84
2022-11-22T07:16:36.207Z,100279.31
2022-11-22T07:19:04.523Z,100273.84
2022-11-22T07:21:33.871Z,100293.34
2022-11-22T07:24:01.797Z,100298.16
2022-11-22T07:26:29.735Z,100299.25
2022-11-22T07:28:58.042Z,100298.47
2022-11-22T07:31:26.263Z,100285.31
2022-11-22T07:33:54.187Z,100290.53
2022-11-22T07:36:23.456Z,100289.63
2022-11-22T07:38:52.877Z,100302.56
2022-11-22T07:41:22.248Z,100310.06
2022-11-22T07:43:50.219Z,100317.69
2022-11-22T07:46:23.429Z,100315.59
2022-11-22T07:48:51.550Z,100319.41
2022-11-22T07:51:19.636Z,100317.25
2022-11-22T07:53:47.922Z,100314.50
2022-11-22T07:56:17.424Z,100312.63
2022-11-22T07:58:45.632Z,100312.53
2022-11-22T08:01:15.307Z,100316.19
2022-11-22T08:03:43.439Z,100311.59
2022-11-22T08:06:13.347Z,100304.88
2022-11-22T08:08:41.764Z,100317.13
2022-11-22T08:11:10.196Z,100314.53
2022-11-22T08:13:39.574Z,100299.34
2022-11-22T08:16:11.100Z,100323.16
2022-11-22T08:18:40.230Z,100319.00
2022-11-22T08:21:09.992Z,100317.06
2022-11-22T08:23:38.435Z,100309.28
2022-11-22T08:26:08.149Z,100316.97
2022-11-22T08:28:36.491Z,100306.13
2022-11-22T08:31:08.623Z,100308.81
2022-11-22T08:33:36.614Z,100303.63
2022-11-22T08:36:04.948Z,100297.31
2022-11-22T08:38:33.105Z,100306.00
2022-11-22T08:41:01.030Z,100302.50
2022-11-22T08:43:28.956Z,100299.38
2022-11-22T08:45:58.009Z,100302.88
2022-11-22T08:48:28.372Z,100296.50
2022-11-22T08:50:58.313Z,100294.53
2022-11-22T08:53:27.465Z,100296.66
2022-11-22T08:55:56.208Z,100292.66
2022-11-22T08:58:24.217Z,100294.34
2022-11-22T09:00:52.160Z,100296.28
2022-11-22T09:03:20.185Z,100294.13
2022-11-22T09:08:40.450Z,100291.34
2022-11-22T09:11:12.333Z,100289.59
2022-11-22T09:13:40.729Z,100291.38
2022-11-22T09:16:11.121Z,100290.84
2022-11-22T09:18:39.476Z,100286.66
2022-11-22T09:21:10.395Z,100282.47
2022-11-22T09:23:39.130Z,100283.91
2022-11-22T09:26:08.553Z,100280.47
2022-11-22T09:28:37.118Z,100287.38
2022-11-22T09:31:07.048Z,100288.47
2022-11-22T09:33:35.779Z,100285.44
2022-11-22T09:36:06.244Z,100285.06
2022-11-22T09:38:36.905Z,100289.69
2022-11-22T09:41:19.672Z,100288.47
2022-11-22T09:43:57.640Z,100279.53
2022-11-22T09:46:40.703Z,100270.09
2022-11-22T09:49:28.832Z,100259.19
2022-11-22T09:52:05.124Z,100249.81
2022-11-22T09:54:41.741Z,100249.63
2022-11-22T09:57:17.608Z,100246.72
2022-11-22T09:59:48.565Z,100254.81
2022-11-22T10:02:23.635Z,100264.22
2022-11-22T10:04:57.712Z,100267.56
2022-11-22T10:07:28.845Z,100267.88
2022-11-22T10:10:05.344Z,100251.97
2022-11-22T10:12:39.856Z,100242.94
2022-11-22T10:15:17.011Z,100242.00
2022-11-22T10:17:54.344Z,100232.84
2022-11-22T10:20:23.869Z,100225.38
2022-11-22T10:22:52.069Z,100236.50
2022-11-22T10:25:23.261Z,100235.34
2022-11-22T10:27:57.554Z,100236.19
2022-11-22T10:30:33.656Z,100218.72
2022-11-22T10:33:14.298Z,100218.19
2022-11-22T10:36:06.523Z,100223.63
2022-11-22T10:38:57.586Z,100228.88
2022-11-22T10:41:45.208Z,100225.41
2022-11-22T10:44:25.432Z,100229.53
2022-11-22T10:47:03.195Z,100237.13
2022-11-22T10:49:44.781Z,100224.72
2022-11-22T10:52:23.308Z,100224.97
2022-11-22T10:54:59.636Z,100219.53
2022-11-22T10:57:37.291Z,100215.28
2022-11-22T11:00:19.638Z,100224.28
2022-11-22T11:03:15.084Z,100228.03
2022-11-22T11:09:03.131Z,100231.38
2022-11-22T11:11:31.440Z,100221.88
2022-11-22T11:14:05.876Z,100211.25
2022-11-22T11:16:37.364Z,100212.38
2022-11-22T11:19:16.989Z,100204.06
2022-11-22T11:21:44.977Z,100194.19
2022-11-22T11:24:16.003Z,100183.59
2022-11-22T11:26:52.242Z,100176.75
2022-11-22T11:29:39.505Z,100186.31
2022-11-22T11:32:13.161Z,100193.38
2022-11-22T11:34:44.032Z,100171.00
2022-11-22T11:37:23.020Z,100164.88
2022-11-22T11:39:51.172Z,100170.28
2022-11-22T11:42:25.479Z,100156.13
2022-11-22T11:44:55.255Z,100150.13
2022-11-22T11:47:34.565Z,100146.03
2022-11-22T11:50:02.754Z,100154.78
2022-11-22T11:52:31.739Z,100145.53
2022-11-22T11:55:03.442Z,100137.84
2022-11-22T11:57:34.875Z,100125.69
2022-11-22T12:00:07.408Z,100131.00
2022-11-22T12:02:40.202Z,100132.22
2022-11-22T12:05:25.775Z,100129.31
2022-11-22T12:07:53.913Z,100121.22
2022-11-22T12:10:32.065Z,100133.47
2022-11-22T12:13:05.137Z,100140.84
2022-11-22T12:15:43.672Z,100141.78
2022-11-22T12:18:31.283Z,100142.41
2022-11-22T12:21:16.929Z,100138.25
2022-11-22T12:23:51.751Z,100129.53
2022-11-22T12:26:20.270Z,100131.59
2022-11-22T12:28:49.004Z,100138.06
2022-11-22T12:31:29.517Z,100127.94
2022-11-22T12:33:59.996Z,100124.59
2022-11-22T12:36:34.908Z,100130.84
2022-11-22T12:39:05.039Z,100136.78
2022-11-22T12:41:35.355Z,100146.97
2022-11-22T12:44:08.003Z,100148.53
2022-11-22T12:46:40.619Z,100150.09
2022-11-22T12:49:16.593Z,100150.31
2022-11-22T12:51:48.492Z,100147.59
2022-11-22T12:54:21.092Z,100143.66
2022-11-22T12:56:53.024Z,100145.50
2022-11-22T12:59:33.659Z,100141.13
2022-11-22T13:02:14.239Z,100142.75
2022-11-22T13:04:57.363Z,100142.34
2022-11-22T13:07:34.281Z,100139.63
2022-11-22T13:10:08.413Z,100134.03
2022-11-22T13:12:38.159Z,100135.91
2022-11-22T13:15:06.824Z,100126.59
2022-11-22T13:17:38.760Z,100124.22
2022-11-22T13:20:14.457Z,100143.75
2022-11-22T13:22:53.156Z,100138.53
2022-11-22T13:25:41.890Z,100136.69
2022-11-22T13:28:15.355Z,100132.78
2022-11-22T13:31:21.308Z,100126.97
2022-11-22T13:33:57.838Z,100129.69
2022-11-22T13:36:41.442Z,100130.34
2022-11-22T13:39:17.122Z,100137.00
2022-11-22T13:41:53.904Z,100134.31
2022-11-22T13:44:36.329Z,100124.03
2022-11-22T13:47:05.667Z,100121.81
2022-11-22T13:49:41.233Z,100103.13
2022-11-22T13:52:51.045Z,100115.97
2022-11-22T13:55:40.324Z,100118.25
2022-11-22T13:58:52.286Z,100114.09
2022-11-22T14:01:57.297Z,100102.47
2022-11-22T14:04:40.838Z,100101.19
2022-11-22T14:07:27.511Z,100099.47
2022-11-22T14:09:57.467Z,100091.06
2022-11-22T14:12:53.164Z,100090.63
2022-11-22T14:15:49.205Z,100082.94
2022-11-22T14:18:37.623Z,100075.47
2022-11-22T14:21:13.710Z,100078.75
2022-11-22T14:23:54.716Z,100077.13
2022-11-22T14:26:31.195Z,100058.75
2022-11-22T14:29:47.157Z,100069.66
2022-11-22T14:32:20.624Z,100051.63
2022-11-22T14:35:21.493Z,100060.44
2022-11-22T14:38:19.066Z,100058.28
2022-11-22T14:40:48.088Z,100053.28
2022-11-22T14:43:26.702Z,100057.00
2022-11-22T14:45:59.527Z,100060.34
2022-11-22T14:48:33.159Z,100068.22
2022-11-22T14:51:08.317Z,100070.28
2022-11-22T14:53:46.904Z,100078.28
2022-11-22T14:56:18.168Z,100070.56
2022-11-22T14:58:58.255Z,100084.06
2022-11-22T15:02:07.791Z,100084.97
2022-11-22T15:09:12.527Z,100086.53
2022-11-22T15:09:20.356Z,100087.91
2022-11-22T15:11:33.234Z,100097.88
2022-11-22T15:14:32.117Z,100101.63
2022-11-22T15:57:37.349Z,100083.22
2022-11-22T16:00:11.964Z,100073.13
2022-11-22T16:02:50.194Z,100069.84
2022-11-22T16:06:06.818Z,100066.56
2022-11-22T16:08:15.883Z,100080.84
2022-11-22T16:10:50.181Z,100081.59
2022-11-22T16:13:27.665Z,100096.00
2022-11-22T16:16:18.864Z,100089.59
2022-11-22T16:18:48.929Z,100081.09
2022-11-22T16:21:27.824Z,100083.03
2022-11-22T16:24:17.986Z,100081.44
2022-11-22T16:26:56.312Z,100077.81
2022-11-22T16:29:32.338Z,100074.66
2022-11-22T16:32:02.491Z,100069.66
2022-11-22T16:34:31.861Z,100053.66
2022-11-22T16:37:00.131Z,100055.88
2022-11-22T16:39:28.236Z,100051.13
2022-11-22T16:41:56.476Z,100042.41
2022-11-22T16:44:24.426Z,100040.31
2022-11-22T16:46:52.348Z,100038.81
2022-11-22T16:49:21.711Z,100042.31
2022-11-22T16:51:52.235Z,100042.81
2022-11-22T16:54:23.912Z,100030.88
2022-11-22T16:56:51.906Z,100023.56
2022-11-22T16:59:19.853Z,100023.09
2022-11-22T17:01:47.798Z,100024.56
2022-11-22T17:04:22.939Z,100014.97
2022-11-22T17:06:52.754Z,100016.06
2022-11-22T17:09:21.049Z,100005.28
2022-11-22T17:11:49.077Z,100011.88
2022-11-22T17:14:18.337Z,100006.53
2022-11-22T17:16:46.918Z,100004.22
2022-11-22T17:19:45.440Z,99993.47
2022-11-22T17:22:07.119Z,99998.00
2022-11-22T17:24:35.321Z,99998.66
2022-11-22T17:27:03.251Z,99993.47
2022-11-22T17:32:19.456Z,99989.03
2022-11-22T17:34:47.407Z,99989.88
2022-11-22T17:37:16.803Z,99989.72
2022-11-22T17:39:44.745Z,99993.66
2022-11-22T17:42:13.336Z,99994.81
2022-11-22T17:44:41.260Z,99996.78
2022-11-22T17:47:09.202Z,99997.66
2022-11-22T17:49:37.164Z,99997.88
2022-11-22T17:52:05.124Z,99995.41
2022-11-22T17:54:34.491Z,99993.75
2022-11-22T17:57:02.416Z,99992.69
2022-11-22T17:59:30.696Z,99988.09
2022-11-22T18:01:59.468Z,99985.59
2022-11-22T18:04:27.451Z,99981.03
2022-11-22T18:06:55.404Z,99988.88
2022-11-22T18:09:23.316Z,99995.38
2022-11-22T18:11:52.616Z,99983.75
2022-11-22T18:14:20.529Z,99990.00
2022-11-22T18:16:48.454Z,99985.75
2022-11-22T18:19:16.689Z,99981.72
2022-11-22T18:21:44.596Z,99973.78
2022-11-22T18:24:12.724Z,99965.94
2022-11-22T18:26:41.565Z,99964.25
2022-11-22T18:32:01.476Z,99942.81
2022-11-22T18:34:30.259Z,99939.53
2022-11-22T18:37:01.979Z,99944.81
2022-11-22T18:39:32.637Z,99942.75
2022-11-22T18:42:00.914Z,99942.31
2022-11-22T18:44:30.341Z,99946.53
2022-11-22T18:46:58.280Z,99953.31
2022-11-22T18:49:26.310Z,99948.06
2022-11-22T18:51:54.462Z,99929.84
2022-11-22T18:54:22.952Z,99915.16
2022-11-22T18:56:51.128Z,99917.31
2022-11-22T18:59:19.392Z,99917.69
2022-11-22T19:01:48.718Z,99911.81
2022-11-22T19:04:17.349Z,99907.19
2022-11-22T19:06:45.970Z,99890.44
2022-11-22T19:09:13.998Z,99889.00
2022-11-22T19:11:42.023Z,99891.56
2022-11-22T19:14:10.279Z,99884.41
2022-11-22T19:16:38.245Z,99894.09
2022-11-22T19:19:08.463Z,99881.41
2022-11-22T19:21:36.407Z,99873.25
2022-11-22T19:24:04.681Z,99873.03
2022-11-22T19:26:32.628Z,99863.00
2022-11-22T19:29:02.743Z,99855.22
2022-11-22T19:31:31.579Z,99852.53
2022-11-22T19:34:00.466Z,99864.91
2022-11-22T19:36:33.640Z,99866.06
2022-11-22T19:39:02.607Z,99858.75
2022-11-22T19:41:31.114Z,99864.53
2022-11-22T19:43:59.435Z,99854.75
2022-11-22T19:46:27.586Z,99873.78
2022-11-22T19:48:57.000Z,99864.19
2022-11-22T19:51:26.422Z,99860.09
2022-11-22T19:53:58.854Z,99834.56
2022-11-22T19:56:30.326Z,99822.06
2022-11-22T19:58:59.824Z,99838.56
2022-11-22T20:01:29.619Z,99830.56
2022-11-22T20:04:00.394Z,99833.94
2022-11-22T20:06:28.983Z,99833.38
2022-11-22T20:09:02.967Z,99834.28
2022-11-22T20:11:30.933Z,99819.78
2022-11-22T20:13:58.836Z,99815.13
2022-11-22T20:16:28.341Z,99810.56
2022-11-22T20:18:57.229Z,99808.38
2022-11-22T20:21:26.347Z,99807.56
2022-11-22T20:23:55.095Z,99794.91
2022-11-22T20:26:25.253Z,99796.88
2022-11-22T20:28:56.866Z,99804.97
2022-11-22T20:31:25.016Z,99806.00
2022-11-22T20:33:54.461Z,99803.91
2022-11-22T20:36:24.292Z,99797.06
2022-11-22T20:38:52.883Z,99801.44
2022-11-22T20:41:22.976Z,99795.94
2022-11-22T20:43:52.805Z,99811.91
2022-11-22T20:46:22.086Z,99806.09
2022-11-22T20:48:50.482Z,99796.44
2022-11-22T20:51:22.677Z,99799.56
2022-11-22T20:53:50.648Z,99801.00
2022-11-22T20:56:18.933Z,99797.06
2022-11-22T20:58:46.990Z,99803.09
2022-11-22T21:01:18.413Z,99802.25
2022-11-22T21:03:46.794Z,99803.00
2022-11-22T21:06:15.935Z,99805.69
2022-11-22T21:08:45.303Z,99807.44
2022-11-22T21:11:15.918Z,99793.94
2022-11-22T21:13:44.607Z,99802.06
2022-11-22T21:16:22.925Z,99775.50
2022-11-22T21:18:53.798Z,99786.16
2022-11-22T21:21:24.016Z,99782.34
2022-11-22T21:23:53.488Z,99778.00
2022-11-22T21:26:22.373Z,99776.53
2022-11-22T21:28:50.773Z,99774.28
2022-11-22T21:31:18.827Z,99762.09
2022-11-22T21:33:47.142Z,99756.31
2022-11-22T21:36:16.700Z,99745.41
2022-11-22T21:38:44.658Z,99757.53
2022-11-22T21:44:05.647Z,99756.72
2022-11-22T21:46:33.504Z,99742.50
2022-11-22T21:49:01.361Z,99736.16
2022-11-22T21:51:30.617Z,99743.94
2022-11-22T21:53:59.391Z,99739.50
2022-11-22T21:56:27.679Z,99732.53
2022-11-22T21:58:55.647Z,99722.03
2022-11-22T22:01:23.911Z,99724.44
2022-11-22T22:03:51.958Z,99721.94
2022-11-22T22:06:20.287Z,99719.66
2022-11-22T22:08:49.687Z,99708.94
2022-11-22T22:11:17.823Z,99729.34
2022-11-22T22:13:45.703Z,99724.16
2022-11-22T22:16:18.919Z,99711.91
2022-11-22T22:18:47.403Z,99724.44
2022-11-22T22:21:16.172Z,99713.88
2022-11-22T22:23:45.107Z,99709.63
2022-11-22T22:26:16.025Z,99704.44
2022-11-22T22:28:45.065Z,99700.19
2022-11-22T22:31:16.853Z,99694.09
2022-11-22T22:33:46.598Z,99675.31
2022-11-22T22:36:15.196Z,99666.09
2022-11-22T22:38:43.231Z,99669.81
2022-11-22T22:41:12.874Z,99669.25
2022-11-22T22:43:43.870Z,99655.19
2022-11-22T22:46:13.679Z,99651.72
2022-11-22T22:48:41.749Z,99647.78
2022-11-22T22:51:12.808Z,99641.19
2022-11-22T22:53:41.003Z,99636.47
2022-11-22T22:56:10.570Z,99625.56
2022-11-22T22:58:38.511Z,99590.53
2022-11-22T23:01:09.804Z,99606.56
2022-11-22T23:03:38.052Z,99592.88
2022-11-22T23:06:07.369Z,99572.25
2022-11-22T23:08:35.592Z,99564.97
2022-11-22T23:11:05.251Z,99554.72
2022-11-22T23:13:33.828Z,99576.34
2022-11-22T23:16:02.077Z,99565.97
2022-11-22T23:18:31.365Z,99570.53
2022-11-22T23:21:00.448Z,99576.50
2022-11-22T23:23:29.282Z,99575.78
2022-11-22T23:25:57.162Z,99595.66
2022-11-22T23:28:25.027Z,99597.09
2022-11-22T23:30:53.447Z,99589.91
2022-11-22T23:33:21.474Z,99570.63
2022-11-22T23:35:50.890Z,99539.66
2022-11-22T23:38:19.057Z,99545.00
2022-11-22T23:40:53.963Z,99550.69
2022-11-22T23:43:21.902Z,99547.94
2022-11-22T23:45:49.882Z,99546.63
2022-11-22T23:48:18.137Z,99558.03
2022-11-22T23:50:46.165Z,99557.56
2022-11-22T23:53:15.454Z,99564.63
2022-11-22T23:55:43.481Z,99564.72
2022-11-22T23:58:11.441Z,99542.97
